Bayshore, New York
Current Conditions -  °F | °C
As of 11:53 AM on Friday 31 Oct 2014 (Local Time) from KFRG Reporting Station
Clear Clear  
Wind Chill: 12°   Ceiling: Unl
Heat Index: 12°   Visibility: 10mi
Dew Point:   Wind: 9mph
Humidity: 59%   Direction: 50°NE
Pressure: 29.97"   Gusts: NA
Location:  40.7379°N, 73.2632°W
Report Text: KFRG 311553Z 05008KT 10SM CLR 12/04 A2997 RMK AO2 SLP149 T01220044
Loading
Personal Weather Stations






























Interactive Weather Map
Tropical Storm Tracking
New forecast layout! Learn more

10-Day Weather Forecast

Advertisements
Track Severe Weather on mobile